sensor_id;sensor_type;location;lat;lon;timestamp;temperature;humidity
18712;DHT22;9485;49.386;8.674;2023-07-29T00:00:42;22.60;94.60
18712;DHT22;9485;49.386;8.674;2023-07-29T00:06:03;22.70;94.50
18712;DHT22;9485;49.386;8.674;2023-07-29T00:11:25;22.70;94.50
18712;DHT22;9485;49.386;8.674;2023-07-29T00:16:47;22.70;94.40
18712;DHT22;9485;49.386;8.674;2023-07-29T00:22:09;22.70;94.40
18712;DHT22;9485;49.386;8.674;2023-07-29T00:27:29;22.70;94.50
18712;DHT22;9485;49.386;8.674;2023-07-29T00:32:52;22.70;94.40
18712;DHT22;9485;49.386;8.674;2023-07-29T00:38:13;22.70;94.30
18712;DHT22;9485;49.386;8.674;2023-07-29T00:43:33;22.70;94.30
18712;DHT22;9485;49.386;8.674;2023-07-29T00:48:56;22.80;94.40
18712;DHT22;9485;49.386;8.674;2023-07-29T00:54:17;22.70;94.20
18712;DHT22;9485;49.386;8.674;2023-07-29T00:59:38;22.70;94.20
18712;DHT22;9485;49.386;8.674;2023-07-29T01:05:06;22.60;94.10
18712;DHT22;9485;49.386;8.674;2023-07-29T01:10:34;22.60;94.00
18712;DHT22;9485;49.386;8.674;2023-07-29T01:16:06;22.60;93.90
18712;DHT22;9485;49.386;8.674;2023-07-29T01:21:37;22.60;94.00
18712;DHT22;9485;49.386;8.674;2023-07-29T01:27:01;22.50;94.10
18712;DHT22;9485;49.386;8.674;2023-07-29T01:32:29;22.50;94.20
18712;DHT22;9485;49.386;8.674;2023-07-29T01:38:01;22.50;94.20
18712;DHT22;9485;49.386;8.674;2023-07-29T01:43:27;22.60;94.20
18712;DHT22;9485;49.386;8.674;2023-07-29T01:48:48;22.60;94.30
18712;DHT22;9485;49.386;8.674;2023-07-29T01:54:08;22.60;94.20
18712;DHT22;9485;49.386;8.674;2023-07-29T01:59:31;22.60;94.20
18712;DHT22;9485;49.386;8.674;2023-07-29T02:04:52;22.60;94.20
18712;DHT22;9485;49.386;8.674;2023-07-29T02:10:16;22.50;94.20
18712;DHT22;9485;49.386;8.674;2023-07-29T02:15:38;22.50;94.10
18712;DHT22;9485;49.386;8.674;2023-07-29T02:20:58;22.50;94.20
18712;DHT22;9485;49.386;8.674;2023-07-29T02:26:22;22.50;94.20
18712;DHT22;9485;49.386;8.674;2023-07-29T02:31:44;22.50;94.10
18712;DHT22;9485;49.386;8.674;2023-07-29T02:37:04;22.50;94.10
18712;DHT22;9485;49.386;8.674;2023-07-29T02:42:25;22.50;94.10
18712;DHT22;9485;49.386;8.674;2023-07-29T02:47:46;22.50;94.10
18712;DHT22;9485;49.386;8.674;2023-07-29T02:53:08;22.50;94.10
18712;DHT22;9485;49.386;8.674;2023-07-29T02:58:29;22.60;94.20
18712;DHT22;9485;49.386;8.674;2023-07-29T03:03:51;22.60;94.10
18712;DHT22;9485;49.386;8.674;2023-07-29T03:09:11;22.60;94.00
18712;DHT22;9485;49.386;8.674;2023-07-29T03:14:33;22.60;94.00
18712;DHT22;9485;49.386;8.674;2023-07-29T03:19:56;22.60;93.90
18712;DHT22;9485;49.386;8.674;2023-07-29T03:25:16;22.60;93.80
18712;DHT22;9485;49.386;8.674;2023-07-29T03:30:37;22.60;93.80
18712;DHT22;9485;49.386;8.674;2023-07-29T03:35:59;22.60;94.10
18712;DHT22;9485;49.386;8.674;2023-07-29T03:41:20;22.60;93.70
18712;DHT22;9485;49.386;8.674;2023-07-29T03:46:41;22.70;93.80
18712;DHT22;9485;49.386;8.674;2023-07-29T03:52:05;22.70;93.80
18712;DHT22;9485;49.386;8.674;2023-07-29T03:57:26;22.70;93.70
18712;DHT22;9485;49.386;8.674;2023-07-29T04:02:49;22.80;93.80
18712;DHT22;9485;49.386;8.674;2023-07-29T04:08:11;22.80;93.70
18712;DHT22;9485;49.386;8.674;2023-07-29T04:13:32;22.80;93.70
18712;DHT22;9485;49.386;8.674;2023-07-29T04:18:53;22.90;94.00
18712;DHT22;9485;49.386;8.674;2023-07-29T04:24:16;22.90;93.70
18712;DHT22;9485;49.386;8.674;2023-07-29T04:29:37;22.90;93.60
18712;DHT22;9485;49.386;8.674;2023-07-29T04:34:57;22.90;93.60
18712;DHT22;9485;49.386;8.674;2023-07-29T04:40:19;23.00;93.60
18712;DHT22;9485;49.386;8.674;2023-07-29T04:45:42;23.00;93.50
18712;DHT22;9485;49.386;8.674;2023-07-29T04:51:05;23.00;93.20
18712;DHT22;9485;49.386;8.674;2023-07-29T04:56:27;23.00;92.80
18712;DHT22;9485;49.386;8.674;2023-07-29T05:01:48;22.80;92.70
18712;DHT22;9485;49.386;8.674;2023-07-29T05:07:09;22.50;92.90
18712;DHT22;9485;49.386;8.674;2023-07-29T05:12:31;22.30;93.30
18712;DHT22;9485;49.386;8.674;2023-07-29T05:17:52;22.20;93.60
18712;DHT22;9485;49.386;8.674;2023-07-29T05:23:13;22.10;93.80
18712;DHT22;9485;49.386;8.674;2023-07-29T05:28:35;22.00;94.10
18712;DHT22;9485;49.386;8.674;2023-07-29T05:33:55;21.90;94.40
18712;DHT22;9485;49.386;8.674;2023-07-29T05:39:19;21.90;94.60
18712;DHT22;9485;49.386;8.674;2023-07-29T05:44:41;21.80;94.80
18712;DHT22;9485;49.386;8.674;2023-07-29T05:50:01;21.80;95.00
18712;DHT22;9485;49.386;8.674;2023-07-29T05:55:23;21.80;95.00
18712;DHT22;9485;49.386;8.674;2023-07-29T06:00:45;21.90;95.20
18712;DHT22;9485;49.386;8.674;2023-07-29T06:06:06;21.80;95.30
18712;DHT22;9485;49.386;8.674;2023-07-29T06:11:28;21.80;95.40
18712;DHT22;9485;49.386;8.674;2023-07-29T06:16:50;21.80;95.60
18712;DHT22;9485;49.386;8.674;2023-07-29T06:22:12;21.90;95.70
18712;DHT22;9485;49.386;8.674;2023-07-29T06:27:33;22.00;95.90
18712;DHT22;9485;49.386;8.674;2023-07-29T06:32:55;22.00;95.90
18712;DHT22;9485;49.386;8.674;2023-07-29T06:38:15;22.10;95.90
18712;DHT22;9485;49.386;8.674;2023-07-29T06:43:40;22.20;95.90
18712;DHT22;9485;49.386;8.674;2023-07-29T06:49:02;22.20;95.80
18712;DHT22;9485;49.386;8.674;2023-07-29T06:54:24;22.30;95.90
18712;DHT22;9485;49.386;8.674;2023-07-29T06:59:45;22.30;96.00
18712;DHT22;9485;49.386;8.674;2023-07-29T07:05:08;22.40;96.30
18712;DHT22;9485;49.386;8.674;2023-07-29T07:10:29;22.50;96.30
18712;DHT22;9485;49.386;8.674;2023-07-29T07:15:49;22.60;96.30
18712;DHT22;9485;49.386;8.674;2023-07-29T07:21:12;22.70;96.30
18712;DHT22;9485;49.386;8.674;2023-07-29T07:26:33;22.80;96.10
18712;DHT22;9485;49.386;8.674;2023-07-29T07:31:54;23.00;96.80
18712;DHT22;9485;49.386;8.674;2023-07-29T07:37:16;23.30;97.30
18712;DHT22;9485;49.386;8.674;2023-07-29T07:42:37;23.60;97.30
18712;DHT22;9485;49.386;8.674;2023-07-29T07:47:57;24.00;97.20
18712;DHT22;9485;49.386;8.674;2023-07-29T07:53:19;24.20;96.20
18712;DHT22;9485;49.386;8.674;2023-07-29T07:58:40;24.30;95.60
18712;DHT22;9485;49.386;8.674;2023-07-29T08:04:00;24.40;95.40
18712;DHT22;9485;49.386;8.674;2023-07-29T08:09:23;24.40;95.50
18712;DHT22;9485;49.386;8.674;2023-07-29T08:14:43;24.40;95.20
18712;DHT22;9485;49.386;8.674;2023-07-29T08:20:04;24.40;95.10
18712;DHT22;9485;49.386;8.674;2023-07-29T08:25:28;24.40;95.00
18712;DHT22;9485;49.386;8.674;2023-07-29T08:30:49;24.30;94.90
18712;DHT22;9485;49.386;8.674;2023-07-29T08:36:11;24.30;95.10
18712;DHT22;9485;49.386;8.674;2023-07-29T08:41:38;24.40;95.50
18712;DHT22;9485;49.386;8.674;2023-07-29T08:47:06;24.40;95.50
18712;DHT22;9485;49.386;8.674;2023-07-29T08:52:27;24.50;95.70
18712;DHT22;9485;49.386;8.674;2023-07-29T08:57:52;24.60;95.50
18712;DHT22;9485;49.386;8.674;2023-07-29T09:03:14;24.70;95.40
18712;DHT22;9485;49.386;8.674;2023-07-29T09:08:35;24.80;95.30
18712;DHT22;9485;49.386;8.674;2023-07-29T09:13:58;24.80;94.90
18712;DHT22;9485;49.386;8.674;2023-07-29T09:19:19;24.80;94.70
18712;DHT22;9485;49.386;8.674;2023-07-29T09:24:40;24.80;94.90
18712;DHT22;9485;49.386;8.674;2023-07-29T09:30:02;25.00;95.90
18712;DHT22;9485;49.386;8.674;2023-07-29T09:35:27;25.20;96.80
18712;DHT22;9485;49.386;8.674;2023-07-29T09:40:48;25.70;97.30
18712;DHT22;9485;49.386;8.674;2023-07-29T09:46:10;26.10;97.10
18712;DHT22;9485;49.386;8.674;2023-07-29T09:51:37;26.50;97.30
18712;DHT22;9485;49.386;8.674;2023-07-29T09:57:02;27.00;97.80
18712;DHT22;9485;49.386;8.674;2023-07-29T10:02:24;27.60;97.80
18712;DHT22;9485;49.386;8.674;2023-07-29T10:07:48;28.20;96.50
18712;DHT22;9485;49.386;8.674;2023-07-29T10:13:12;28.60;95.10
18712;DHT22;9485;49.386;8.674;2023-07-29T10:18:34;28.80;94.10
18712;DHT22;9485;49.386;8.674;2023-07-29T10:23:57;29.00;92.90
18712;DHT22;9485;49.386;8.674;2023-07-29T10:29:23;29.00;92.10
18712;DHT22;9485;49.386;8.674;2023-07-29T10:34:47;29.00;92.60
18712;DHT22;9485;49.386;8.674;2023-07-29T10:40:09;29.10;93.40
18712;DHT22;9485;49.386;8.674;2023-07-29T10:45:36;29.30;92.80
18712;DHT22;9485;49.386;8.674;2023-07-29T10:51:23;29.50;92.20
18712;DHT22;9485;49.386;8.674;2023-07-29T10:56:50;29.60;91.10
18712;DHT22;9485;49.386;8.674;2023-07-29T11:02:17;29.90;93.60
18712;DHT22;9485;49.386;8.674;2023-07-29T11:07:45;30.30;92.30
18712;DHT22;9485;49.386;8.674;2023-07-29T11:13:06;30.70;92.30
18712;DHT22;9485;49.386;8.674;2023-07-29T11:18:30;31.10;92.70
18712;DHT22;9485;49.386;8.674;2023-07-29T11:23:53;31.50;92.10
18712;DHT22;9485;49.386;8.674;2023-07-29T11:29:16;31.70;91.20
18712;DHT22;9485;49.386;8.674;2023-07-29T11:34:36;31.90;90.50
18712;DHT22;9485;49.386;8.674;2023-07-29T11:40:01;32.00;90.60
18712;DHT22;9485;49.386;8.674;2023-07-29T11:45:22;32.10;89.80
18712;DHT22;9485;49.386;8.674;2023-07-29T11:50:44;32.10;90.10
18712;DHT22;9485;49.386;8.674;2023-07-29T11:56:06;32.20;89.90
18712;DHT22;9485;49.386;8.674;2023-07-29T12:01:28;32.30;88.80
18712;DHT22;9485;49.386;8.674;2023-07-29T12:06:48;32.50;90.70
18712;DHT22;9485;49.386;8.674;2023-07-29T12:12:11;32.80;90.20
18712;DHT22;9485;49.386;8.674;2023-07-29T12:17:32;33.00;87.20
18712;DHT22;9485;49.386;8.674;2023-07-29T12:23:00;33.10;89.50
18712;DHT22;9485;49.386;8.674;2023-07-29T12:28:24;33.40;89.40
18712;DHT22;9485;49.386;8.674;2023-07-29T12:33:46;33.60;87.10
18712;DHT22;9485;49.386;8.674;2023-07-29T12:39:16;33.80;88.40
18712;DHT22;9485;49.386;8.674;2023-07-29T12:44:39;34.10;83.10
18712;DHT22;9485;49.386;8.674;2023-07-29T12:50:00;34.20;86.30
18712;DHT22;9485;49.386;8.674;2023-07-29T12:55:20;34.40;86.10
18712;DHT22;9485;49.386;8.674;2023-07-29T13:00:42;34.50;84.30
18712;DHT22;9485;49.386;8.674;2023-07-29T13:06:03;34.60;83.10
18712;DHT22;9485;49.386;8.674;2023-07-29T13:11:24;34.70;85.70
18712;DHT22;9485;49.386;8.674;2023-07-29T13:16:46;34.80;83.90
18712;DHT22;9485;49.386;8.674;2023-07-29T13:22:07;34.90;82.10
18712;DHT22;9485;49.386;8.674;2023-07-29T13:27:27;35.10;81.20
18712;DHT22;9485;49.386;8.674;2023-07-29T13:32:49;34.90;78.40
18712;DHT22;9485;49.386;8.674;2023-07-29T13:38:10;34.60;76.30
18712;DHT22;9485;49.386;8.674;2023-07-29T13:43:30;34.20;76.80
18712;DHT22;9485;49.386;8.674;2023-07-29T13:48:52;34.00;79.70
18712;DHT22;9485;49.386;8.674;2023-07-29T13:54:13;34.00;76.10
18712;DHT22;9485;49.386;8.674;2023-07-29T13:59:33;33.80;77.80
18712;DHT22;9485;49.386;8.674;2023-07-29T14:04:55;33.70;78.80
18712;DHT22;9485;49.386;8.674;2023-07-29T14:10:16;33.60;76.70
18712;DHT22;9485;49.386;8.674;2023-07-29T14:15:37;33.60;80.50
18712;DHT22;9485;49.386;8.674;2023-07-29T14:20:58;33.80;81.60
18712;DHT22;9485;49.386;8.674;2023-07-29T14:26:20;34.10;79.60
18712;DHT22;9485;49.386;8.674;2023-07-29T14:31:40;34.40;80.70
18712;DHT22;9485;49.386;8.674;2023-07-29T14:37:02;34.70;80.10
18712;DHT22;9485;49.386;8.674;2023-07-29T14:42:24;34.70;77.00
18712;DHT22;9485;49.386;8.674;2023-07-29T14:47:45;34.70;76.90
18712;DHT22;9485;49.386;8.674;2023-07-29T14:53:06;34.50;76.20
18712;DHT22;9485;49.386;8.674;2023-07-29T14:58:28;34.20;74.60
18712;DHT22;9485;49.386;8.674;2023-07-29T15:03:49;33.90;75.70
18712;DHT22;9485;49.386;8.674;2023-07-29T15:09:11;33.60;75.20
18712;DHT22;9485;49.386;8.674;2023-07-29T15:14:31;33.30;74.20
18712;DHT22;9485;49.386;8.674;2023-07-29T15:19:52;32.90;75.40
18712;DHT22;9485;49.386;8.674;2023-07-29T15:25:14;32.60;75.80
18712;DHT22;9485;49.386;8.674;2023-07-29T15:30:36;32.30;75.30
18712;DHT22;9485;49.386;8.674;2023-07-29T15:35:57;32.00;75.60
18712;DHT22;9485;49.386;8.674;2023-07-29T15:41:20;31.70;76.40
18712;DHT22;9485;49.386;8.674;2023-07-29T15:46:40;31.50;75.50
18712;DHT22;9485;49.386;8.674;2023-07-29T15:52:01;31.30;77.10
18712;DHT22;9485;49.386;8.674;2023-07-29T15:57:23;31.20;77.50
18712;DHT22;9485;49.386;8.674;2023-07-29T16:02:43;31.00;76.50
18712;DHT22;9485;49.386;8.674;2023-07-29T16:08:04;30.90;77.50
18712;DHT22;9485;49.386;8.674;2023-07-29T16:13:26;30.80;76.90
18712;DHT22;9485;49.386;8.674;2023-07-29T16:18:46;30.70;76.20
18712;DHT22;9485;49.386;8.674;2023-07-29T16:24:07;30.60;77.80
18712;DHT22;9485;49.386;8.674;2023-07-29T16:29:29;30.40;77.50
18712;DHT22;9485;49.386;8.674;2023-07-29T16:34:49;30.30;76.90
18712;DHT22;9485;49.386;8.674;2023-07-29T16:40:10;30.20;77.90
18712;DHT22;9485;49.386;8.674;2023-07-29T16:45:32;30.00;77.70
18712;DHT22;9485;49.386;8.674;2023-07-29T16:50:53;29.70;77.00
18712;DHT22;9485;49.386;8.674;2023-07-29T16:56:14;29.30;76.90
18712;DHT22;9485;49.386;8.674;2023-07-29T17:01:36;28.60;78.20
18712;DHT22;9485;49.386;8.674;2023-07-29T17:06:56;27.90;79.20
18712;DHT22;9485;49.386;8.674;2023-07-29T17:12:16;27.30;80.70
18712;DHT22;9485;49.386;8.674;2023-07-29T17:17:39;26.70;81.90
18712;DHT22;9485;49.386;8.674;2023-07-29T17:23:00;26.20;83.40
18712;DHT22;9485;49.386;8.674;2023-07-29T17:28:21;25.80;85.00
18712;DHT22;9485;49.386;8.674;2023-07-29T17:33:43;25.50;86.70
18712;DHT22;9485;49.386;8.674;2023-07-29T17:39:03;25.30;88.30
18712;DHT22;9485;49.386;8.674;2023-07-29T17:44:26;25.10;89.70
18712;DHT22;9485;49.386;8.674;2023-07-29T17:49:49;25.00;90.40
18712;DHT22;9485;49.386;8.674;2023-07-29T17:55:09;25.00;90.70
18712;DHT22;9485;49.386;8.674;2023-07-29T18:00:31;25.00;91.00
18712;DHT22;9485;49.386;8.674;2023-07-29T18:05:54;24.90;91.40
18712;DHT22;9485;49.386;8.674;2023-07-29T18:11:15;24.90;91.60
18712;DHT22;9485;49.386;8.674;2023-07-29T18:16:37;24.90;91.70
18712;DHT22;9485;49.386;8.674;2023-07-29T18:22:01;24.90;91.80
18712;DHT22;9485;49.386;8.674;2023-07-29T18:27:22;24.90;91.80
18712;DHT22;9485;49.386;8.674;2023-07-29T18:32:44;24.90;91.80
18712;DHT22;9485;49.386;8.674;2023-07-29T18:38:06;24.90;91.80
18712;DHT22;9485;49.386;8.674;2023-07-29T18:43:27;24.90;91.90
18712;DHT22;9485;49.386;8.674;2023-07-29T18:48:47;24.80;92.00
18712;DHT22;9485;49.386;8.674;2023-07-29T18:54:09;24.80;92.00
18712;DHT22;9485;49.386;8.674;2023-07-29T18:59:30;24.80;92.00
18712;DHT22;9485;49.386;8.674;2023-07-29T19:04:50;24.80;92.10
18712;DHT22;9485;49.386;8.674;2023-07-29T19:10:12;24.70;92.00
18712;DHT22;9485;49.386;8.674;2023-07-29T19:15:32;24.70;92.10
18712;DHT22;9485;49.386;8.674;2023-07-29T19:20:53;24.70;92.10
18712;DHT22;9485;49.386;8.674;2023-07-29T19:26:15;24.70;92.10
18712;DHT22;9485;49.386;8.674;2023-07-29T19:31:39;24.70;92.10
18712;DHT22;9485;49.386;8.674;2023-07-29T19:37:00;24.70;92.00
18712;DHT22;9485;49.386;8.674;2023-07-29T19:42:22;24.70;92.00
18712;DHT22;9485;49.386;8.674;2023-07-29T19:47:43;24.60;92.00
18712;DHT22;9485;49.386;8.674;2023-07-29T19:53:03;24.60;91.90
18712;DHT22;9485;49.386;8.674;2023-07-29T19:58:27;24.50;91.80
18712;DHT22;9485;49.386;8.674;2023-07-29T20:03:47;24.50;91.80
18712;DHT22;9485;49.386;8.674;2023-07-29T20:09:08;24.50;92.00
18712;DHT22;9485;49.386;8.674;2023-07-29T20:14:31;24.50;92.00
18712;DHT22;9485;49.386;8.674;2023-07-29T20:19:52;24.50;92.00
18712;DHT22;9485;49.386;8.674;2023-07-29T20:25:13;24.50;92.00
18712;DHT22;9485;49.386;8.674;2023-07-29T20:30:37;24.40;92.00
18712;DHT22;9485;49.386;8.674;2023-07-29T20:35:59;24.40;92.10
18712;DHT22;9485;49.386;8.674;2023-07-29T20:41:22;24.40;92.10
18712;DHT22;9485;49.386;8.674;2023-07-29T20:46:45;24.40;92.10
18712;DHT22;9485;49.386;8.674;2023-07-29T20:52:07;24.30;91.90
18712;DHT22;9485;49.386;8.674;2023-07-29T20:57:29;24.30;92.10
18712;DHT22;9485;49.386;8.674;2023-07-29T21:02:52;24.40;92.10
18712;DHT22;9485;49.386;8.674;2023-07-29T21:08:12;24.40;92.00
18712;DHT22;9485;49.386;8.674;2023-07-29T21:13:33;24.40;92.20
18712;DHT22;9485;49.386;8.674;2023-07-29T21:18:54;24.50;92.30
18712;DHT22;9485;49.386;8.674;2023-07-29T21:24:17;24.50;92.20
18712;DHT22;9485;49.386;8.674;2023-07-29T21:29:37;24.50;92.60
18712;DHT22;9485;49.386;8.674;2023-07-29T21:34:59;24.50;92.20
18712;DHT22;9485;49.386;8.674;2023-07-29T21:40:22;24.50;91.90
18712;DHT22;9485;49.386;8.674;2023-07-29T21:45:44;24.50;91.90
18712;DHT22;9485;49.386;8.674;2023-07-29T21:51:06;24.60;91.90
18712;DHT22;9485;49.386;8.674;2023-07-29T21:56:28;24.50;91.60
18712;DHT22;9485;49.386;8.674;2023-07-29T22:01:49;24.40;91.60
18712;DHT22;9485;49.386;8.674;2023-07-29T22:07:11;24.20;91.70
18712;DHT22;9485;49.386;8.674;2023-07-29T22:12:32;24.10;92.00
18712;DHT22;9485;49.386;8.674;2023-07-29T22:17:53;24.00;92.20
18712;DHT22;9485;49.386;8.674;2023-07-29T22:23:14;23.90;92.40
18712;DHT22;9485;49.386;8.674;2023-07-29T22:28:35;23.70;92.60
18712;DHT22;9485;49.386;8.674;2023-07-29T22:33:57;23.60;92.90
18712;DHT22;9485;49.386;8.674;2023-07-29T22:39:19;23.60;93.20
18712;DHT22;9485;49.386;8.674;2023-07-29T22:44:39;23.60;93.40
18712;DHT22;9485;49.386;8.674;2023-07-29T22:50:00;23.60;93.60
18712;DHT22;9485;49.386;8.674;2023-07-29T22:55:24;23.50;93.60
18712;DHT22;9485;49.386;8.674;2023-07-29T23:00:47;23.50;93.60
18712;DHT22;9485;49.386;8.674;2023-07-29T23:06:10;23.50;93.70
18712;DHT22;9485;49.386;8.674;2023-07-29T23:11:33;23.50;93.80
18712;DHT22;9485;49.386;8.674;2023-07-29T23:16:53;23.50;93.90
18712;DHT22;9485;49.386;8.674;2023-07-29T23:22:14;23.40;93.90
18712;DHT22;9485;49.386;8.674;2023-07-29T23:27:36;23.40;94.00
18712;DHT22;9485;49.386;8.674;2023-07-29T23:32:56;23.40;94.40
18712;DHT22;9485;49.386;8.674;2023-07-29T23:38:17;23.50;94.10
18712;DHT22;9485;49.386;8.674;2023-07-29T23:43:42;23.40;94.10
18712;DHT22;9485;49.386;8.674;2023-07-29T23:49:02;23.40;94.10
18712;DHT22;9485;49.386;8.674;2023-07-29T23:54:23;23.40;94.20
18712;DHT22;9485;49.386;8.674;2023-07-29T23:59:45;23.40;94.00
